You are listening to:
KLAX Tower (South) - Los Angeles, California, United States

KLAX 201053Z 00000KT 10SM FEW012 11/09 A3019 RMK AO2 SLP222 T01110094

If stream doesn't start automatically press the play button
If stream stops then reload player then press play